sensor_id;sensor_type;location;lat;lon;timestamp;temperature;humidity
75088;HTU21D;63664;44.868;40.600;2023-08-06T00:00:23;25.12;61.60
75088;HTU21D;63664;44.868;40.600;2023-08-06T00:02:50;25.10;61.67
75088;HTU21D;63664;44.868;40.600;2023-08-06T00:05:16;25.08;61.79
75088;HTU21D;63664;44.868;40.600;2023-08-06T00:07:51;25.04;61.81
75088;HTU21D;63664;44.868;40.600;2023-08-06T00:10:18;25.04;61.92
75088;HTU21D;63664;44.868;40.600;2023-08-06T00:12:44;25.03;62.01
75088;HTU21D;63664;44.868;40.600;2023-08-06T00:15:11;25.01;62.23
75088;HTU21D;63664;44.868;40.600;2023-08-06T00:17:38;24.98;62.40
75088;HTU21D;63664;44.868;40.600;2023-08-06T00:20:05;24.93;62.69
75088;HTU21D;63664;44.868;40.600;2023-08-06T00:22:36;24.89;63.04
75088;HTU21D;63664;44.868;40.600;2023-08-06T00:25:04;24.84;63.23
75088;HTU21D;63664;44.868;40.600;2023-08-06T00:27:31;24.80;63.44
75088;HTU21D;63664;44.868;40.600;2023-08-06T00:29:58;24.76;63.61
75088;HTU21D;63664;44.868;40.600;2023-08-06T00:32:25;24.73;63.79
75088;HTU21D;63664;44.868;40.600;2023-08-06T00:34:51;24.71;63.94
75088;HTU21D;63664;44.868;40.600;2023-08-06T00:37:18;24.68;64.06
75088;HTU21D;63664;44.868;40.600;2023-08-06T00:39:45;24.66;64.19
75088;HTU21D;63664;44.868;40.600;2023-08-06T00:42:12;24.63;64.43
75088;HTU21D;63664;44.868;40.600;2023-08-06T00:44:39;24.59;64.92
75088;HTU21D;63664;44.868;40.600;2023-08-06T00:47:08;24.55;65.17
75088;HTU21D;63664;44.868;40.600;2023-08-06T00:49:36;24.49;65.42
75088;HTU21D;63664;44.868;40.600;2023-08-06T00:52:04;24.43;65.69
75088;HTU21D;63664;44.868;40.600;2023-08-06T00:54:31;24.40;66.27
75088;HTU21D;63664;44.868;40.600;2023-08-06T00:56:58;24.35;66.78
75088;HTU21D;63664;44.868;40.600;2023-08-06T00:59:25;24.28;67.17
75088;HTU21D;63664;44.868;40.600;2023-08-06T01:01:52;24.23;67.54
75088;HTU21D;63664;44.868;40.600;2023-08-06T01:04:18;24.14;67.90
75088;HTU21D;63664;44.868;40.600;2023-08-06T01:12:43;23.88;68.74
75088;HTU21D;63664;44.868;40.600;2023-08-06T01:15:18;23.79;69.11
75088;HTU21D;63664;44.868;40.600;2023-08-06T01:17:46;23.70;69.64
75088;HTU21D;63664;44.868;40.600;2023-08-06T01:20:13;23.62;70.13
75088;HTU21D;63664;44.868;40.600;2023-08-06T01:22:39;23.57;70.51
75088;HTU21D;63664;44.868;40.600;2023-08-06T01:25:07;23.54;70.89
75088;HTU21D;63664;44.868;40.600;2023-08-06T01:27:35;23.49;71.18
75088;HTU21D;63664;44.868;40.600;2023-08-06T01:30:10;23.41;71.58
75088;HTU21D;63664;44.868;40.600;2023-08-06T01:32:44;23.37;71.73
75088;HTU21D;63664;44.868;40.600;2023-08-06T01:35:15;23.34;71.89
75088;HTU21D;63664;44.868;40.600;2023-08-06T01:37:43;23.28;71.97
75088;HTU21D;63664;44.868;40.600;2023-08-06T01:40:13;23.27;72.03
75088;HTU21D;63664;44.868;40.600;2023-08-06T01:42:40;23.22;72.25
75088;HTU21D;63664;44.868;40.600;2023-08-06T01:45:08;23.20;72.45
75088;HTU21D;63664;44.868;40.600;2023-08-06T01:47:35;23.18;72.47
75088;HTU21D;63664;44.868;40.600;2023-08-06T01:50:02;23.18;72.64
75088;HTU21D;63664;44.868;40.600;2023-08-06T01:52:28;23.16;72.70
75088;HTU21D;63664;44.868;40.600;2023-08-06T01:54:55;23.13;72.96
75088;HTU21D;63664;44.868;40.600;2023-08-06T01:57:22;23.09;73.18
75088;HTU21D;63664;44.868;40.600;2023-08-06T01:59:48;23.07;73.38
75088;HTU21D;63664;44.868;40.600;2023-08-06T02:02:14;23.01;73.56
75088;HTU21D;63664;44.868;40.600;2023-08-06T02:04:41;22.96;73.89
75088;HTU21D;63664;44.868;40.600;2023-08-06T02:07:07;22.90;74.16
75088;HTU21D;63664;44.868;40.600;2023-08-06T02:09:33;22.86;74.37
75088;HTU21D;63664;44.868;40.600;2023-08-06T02:12:01;22.83;74.54
75088;HTU21D;63664;44.868;40.600;2023-08-06T02:14:28;22.82;74.72
75088;HTU21D;63664;44.868;40.600;2023-08-06T02:16:54;22.81;74.91
75088;HTU21D;63664;44.868;40.600;2023-08-06T02:19:20;22.79;75.11
75088;HTU21D;63664;44.868;40.600;2023-08-06T02:21:47;22.79;75.21
75088;HTU21D;63664;44.868;40.600;2023-08-06T02:24:13;22.78;75.35
75088;HTU21D;63664;44.868;40.600;2023-08-06T02:26:39;22.75;75.57
75088;HTU21D;63664;44.868;40.600;2023-08-06T02:29:05;22.73;75.73
75088;HTU21D;63664;44.868;40.600;2023-08-06T02:31:32;22.70;75.76
75088;HTU21D;63664;44.868;40.600;2023-08-06T02:33:58;22.69;75.75
75088;HTU21D;63664;44.868;40.600;2023-08-06T02:36:24;22.68;75.82
75088;HTU21D;63664;44.868;40.600;2023-08-06T02:38:58;22.67;75.86
75088;HTU21D;63664;44.868;40.600;2023-08-06T02:41:24;22.67;75.89
75088;HTU21D;63664;44.868;40.600;2023-08-06T02:43:50;22.65;76.04
75088;HTU21D;63664;44.868;40.600;2023-08-06T02:46:18;22.64;76.02
75088;HTU21D;63664;44.868;40.600;2023-08-06T02:48:45;22.62;76.09
75088;HTU21D;63664;44.868;40.600;2023-08-06T02:51:12;22.62;76.22
75088;HTU21D;63664;44.868;40.600;2023-08-06T02:53:38;22.62;76.41
75088;HTU21D;63664;44.868;40.600;2023-08-06T02:56:08;22.61;76.56
75088;HTU21D;63664;44.868;40.600;2023-08-06T02:58:56;22.62;76.55
75088;HTU21D;63664;44.868;40.600;2023-08-06T03:01:41;22.63;76.50
75088;HTU21D;63664;44.868;40.600;2023-08-06T03:04:16;22.63;76.47
75088;HTU21D;63664;44.868;40.600;2023-08-06T03:06:46;22.64;76.49
75088;HTU21D;63664;44.868;40.600;2023-08-06T03:09:13;22.63;76.62
75088;HTU21D;63664;44.868;40.600;2023-08-06T03:11:39;22.66;76.67
75088;HTU21D;63664;44.868;40.600;2023-08-06T03:14:11;22.69;76.56
75088;HTU21D;63664;44.868;40.600;2023-08-06T03:16:38;22.73;76.63
75088;HTU21D;63664;44.868;40.600;2023-08-06T03:19:04;22.77;76.54
75088;HTU21D;63664;44.868;40.600;2023-08-06T03:21:31;22.79;76.69
75088;HTU21D;63664;44.868;40.600;2023-08-06T03:23:58;22.81;76.72
75088;HTU21D;63664;44.868;40.600;2023-08-06T03:26:29;22.85;76.71
75088;HTU21D;63664;44.868;40.600;2023-08-06T03:28:56;22.88;76.54
75088;HTU21D;63664;44.868;40.600;2023-08-06T03:31:22;22.94;76.35
75088;HTU21D;63664;44.868;40.600;2023-08-06T03:33:48;22.99;76.31
75088;HTU21D;63664;44.868;40.600;2023-08-06T03:36:19;23.02;75.95
75088;HTU21D;63664;44.868;40.600;2023-08-06T03:38:47;23.06;75.82
75088;HTU21D;63664;44.868;40.600;2023-08-06T03:41:14;23.11;75.59
75088;HTU21D;63664;44.868;40.600;2023-08-06T03:43:40;23.14;75.57
75088;HTU21D;63664;44.868;40.600;2023-08-06T03:46:12;23.20;75.34
75088;HTU21D;63664;44.868;40.600;2023-08-06T03:48:39;23.25;75.17
75088;HTU21D;63664;44.868;40.600;2023-08-06T03:51:05;23.31;75.11
75088;HTU21D;63664;44.868;40.600;2023-08-06T03:53:32;23.38;75.02
75088;HTU21D;63664;44.868;40.600;2023-08-06T03:55:58;23.43;74.86
75088;HTU21D;63664;44.868;40.600;2023-08-06T03:58:26;23.51;74.46
75088;HTU21D;63664;44.868;40.600;2023-08-06T04:01:03;23.59;74.17
75088;HTU21D;63664;44.868;40.600;2023-08-06T04:03:47;23.69;73.79
75088;HTU21D;63664;44.868;40.600;2023-08-06T04:06:13;23.77;73.28
75088;HTU21D;63664;44.868;40.600;2023-08-06T04:08:39;23.85;72.86
75088;HTU21D;63664;44.868;40.600;2023-08-06T04:11:07;23.92;72.44
75088;HTU21D;63664;44.868;40.600;2023-08-06T04:13:34;23.99;72.03
75088;HTU21D;63664;44.868;40.600;2023-08-06T04:16:02;24.09;71.38
75088;HTU21D;63664;44.868;40.600;2023-08-06T04:18:29;24.19;70.97
75088;HTU21D;63664;44.868;40.600;2023-08-06T04:20:56;24.27;70.56
75088;HTU21D;63664;44.868;40.600;2023-08-06T04:23:24;24.35;70.21
75088;HTU21D;63664;44.868;40.600;2023-08-06T04:25:57;24.43;69.74
75088;HTU21D;63664;44.868;40.600;2023-08-06T04:28:27;24.50;69.55
75088;HTU21D;63664;44.868;40.600;2023-08-06T04:30:53;24.58;69.20
75088;HTU21D;63664;44.868;40.600;2023-08-06T04:33:22;24.64;68.75
75088;HTU21D;63664;44.868;40.600;2023-08-06T04:35:54;24.73;68.42
75088;HTU21D;63664;44.868;40.600;2023-08-06T04:38:26;24.84;68.11
75088;HTU21D;63664;44.868;40.600;2023-08-06T04:40:54;24.90;67.67
75088;HTU21D;63664;44.868;40.600;2023-08-06T04:43:21;25.00;67.25
75088;HTU21D;63664;44.868;40.600;2023-08-06T04:45:53;25.08;66.88
75088;HTU21D;63664;44.868;40.600;2023-08-06T04:48:19;25.15;66.59
75088;HTU21D;63664;44.868;40.600;2023-08-06T04:50:47;25.24;66.20
75088;HTU21D;63664;44.868;40.600;2023-08-06T04:53:14;25.33;65.88
75088;HTU21D;63664;44.868;40.600;2023-08-06T04:55:41;25.40;65.39
75088;HTU21D;63664;44.868;40.600;2023-08-06T04:58:13;25.51;65.23
75088;HTU21D;63664;44.868;40.600;2023-08-06T05:00:39;25.58;64.92
75088;HTU21D;63664;44.868;40.600;2023-08-06T05:03:06;25.67;64.48
75088;HTU21D;63664;44.868;40.600;2023-08-06T05:05:32;25.82;64.05
75088;HTU21D;63664;44.868;40.600;2023-08-06T05:07:58;25.95;63.04
75088;HTU21D;63664;44.868;40.600;2023-08-06T05:10:26;26.11;62.31
75088;HTU21D;63664;44.868;40.600;2023-08-06T05:12:53;26.24;62.21
75088;HTU21D;63664;44.868;40.600;2023-08-06T05:15:19;26.36;61.15
75088;HTU21D;63664;44.868;40.600;2023-08-06T05:17:46;26.56;60.40
75088;HTU21D;63664;44.868;40.600;2023-08-06T05:20:12;26.72;59.67
75088;HTU21D;63664;44.868;40.600;2023-08-06T05:22:38;26.89;58.63
75088;HTU21D;63664;44.868;40.600;2023-08-06T05:25:05;27.06;57.80
75088;HTU21D;63664;44.868;40.600;2023-08-06T05:27:32;27.21;56.93
75088;HTU21D;63664;44.868;40.600;2023-08-06T05:29:58;27.37;56.16
75088;HTU21D;63664;44.868;40.600;2023-08-06T05:32:24;27.54;55.43
75088;HTU21D;63664;44.868;40.600;2023-08-06T05:34:51;27.73;54.49
75088;HTU21D;63664;44.868;40.600;2023-08-06T05:37:17;27.91;53.78
75088;HTU21D;63664;44.868;40.600;2023-08-06T05:39:43;28.09;53.30
75088;HTU21D;63664;44.868;40.600;2023-08-06T05:42:10;28.25;52.61
75088;HTU21D;63664;44.868;40.600;2023-08-06T05:44:36;28.43;52.24
75088;HTU21D;63664;44.868;40.600;2023-08-06T05:47:03;28.61;51.42
75088;HTU21D;63664;44.868;40.600;2023-08-06T05:49:29;28.78;51.06
75088;HTU21D;63664;44.868;40.600;2023-08-06T05:51:55;28.98;50.34
75088;HTU21D;63664;44.868;40.600;2023-08-06T05:54:22;29.14;49.59
75088;HTU21D;63664;44.868;40.600;2023-08-06T05:56:48;29.31;48.92
75088;HTU21D;63664;44.868;40.600;2023-08-06T05:59:14;29.45;48.57
75088;HTU21D;63664;44.868;40.600;2023-08-06T06:01:41;29.63;48.04
75088;HTU21D;63664;44.868;40.600;2023-08-06T06:04:07;29.79;47.56
75088;HTU21D;63664;44.868;40.600;2023-08-06T06:06:33;29.95;46.89
75088;HTU21D;63664;44.868;40.600;2023-08-06T06:08:59;30.10;46.28
75088;HTU21D;63664;44.868;40.600;2023-08-06T06:11:26;30.24;45.67
75088;HTU21D;63664;44.868;40.600;2023-08-06T06:13:52;30.39;45.15
75088;HTU21D;63664;44.868;40.600;2023-08-06T06:16:18;30.52;44.91
75088;HTU21D;63664;44.868;40.600;2023-08-06T06:18:44;30.68;44.45
75088;HTU21D;63664;44.868;40.600;2023-08-06T06:21:11;30.85;44.31
75088;HTU21D;63664;44.868;40.600;2023-08-06T06:23:37;31.06;43.87
75088;HTU21D;63664;44.868;40.600;2023-08-06T06:26:03;31.25;43.47
75088;HTU21D;63664;44.868;40.600;2023-08-06T06:28:30;31.38;42.96
75088;HTU21D;63664;44.868;40.600;2023-08-06T06:31:03;31.55;42.49
75088;HTU21D;63664;44.868;40.600;2023-08-06T06:33:29;31.69;42.01
75088;HTU21D;63664;44.868;40.600;2023-08-06T06:35:55;31.84;41.74
75088;HTU21D;63664;44.868;40.600;2023-08-06T06:38:22;31.98;41.36
75088;HTU21D;63664;44.868;40.600;2023-08-06T06:40:56;32.14;40.82
75088;HTU21D;63664;44.868;40.600;2023-08-06T06:43:23;32.29;40.54
75088;HTU21D;63664;44.868;40.600;2023-08-06T06:45:53;32.43;40.01
75088;HTU21D;63664;44.868;40.600;2023-08-06T06:48:20;32.60;39.80
75088;HTU21D;63664;44.868;40.600;2023-08-06T06:50:49;32.73;38.89
75088;HTU21D;63664;44.868;40.600;2023-08-06T06:53:16;32.88;38.94
75088;HTU21D;63664;44.868;40.600;2023-08-06T06:55:42;33.05;38.82
75088;HTU21D;63664;44.868;40.600;2023-08-06T06:58:08;33.21;38.40
75088;HTU21D;63664;44.868;40.600;2023-08-06T07:00:37;33.37;37.72
75088;HTU21D;63664;44.868;40.600;2023-08-06T07:03:03;33.53;37.49
75088;HTU21D;63664;44.868;40.600;2023-08-06T07:05:30;33.67;36.84
75088;HTU21D;63664;44.868;40.600;2023-08-06T07:07:56;33.79;36.89
75088;HTU21D;63664;44.868;40.600;2023-08-06T07:10:23;33.92;36.55
75088;HTU21D;63664;44.868;40.600;2023-08-06T07:12:49;34.09;36.43
75088;HTU21D;63664;44.868;40.600;2023-08-06T07:15:15;34.24;36.24
75088;HTU21D;63664;44.868;40.600;2023-08-06T07:17:43;34.34;35.74
75088;HTU21D;63664;44.868;40.600;2023-08-06T07:20:10;34.40;35.58
75088;HTU21D;63664;44.868;40.600;2023-08-06T07:22:37;34.48;35.37
75088;HTU21D;63664;44.868;40.600;2023-08-06T07:25:03;34.62;35.12
75088;HTU21D;63664;44.868;40.600;2023-08-06T07:27:30;34.71;34.54
75088;HTU21D;63664;44.868;40.600;2023-08-06T07:29:56;34.76;34.17
75088;HTU21D;63664;44.868;40.600;2023-08-06T07:32:24;34.79;34.27
75088;HTU21D;63664;44.868;40.600;2023-08-06T07:34:50;34.83;33.94
75088;HTU21D;63664;44.868;40.600;2023-08-06T07:37:23;34.91;33.60
75088;HTU21D;63664;44.868;40.600;2023-08-06T07:39:49;35.01;33.38
75088;HTU21D;63664;44.868;40.600;2023-08-06T07:42:15;35.18;33.23
75088;HTU21D;63664;44.868;40.600;2023-08-06T07:44:41;35.27;32.80
75088;HTU21D;63664;44.868;40.600;2023-08-06T07:47:08;35.39;32.58
75088;HTU21D;63664;44.868;40.600;2023-08-06T07:49:34;35.50;32.50
75088;HTU21D;63664;44.868;40.600;2023-08-06T07:52:00;35.65;32.27
75088;HTU21D;63664;44.868;40.600;2023-08-06T07:54:26;35.77;31.99
75088;HTU21D;63664;44.868;40.600;2023-08-06T07:56:54;35.90;31.78
75088;HTU21D;63664;44.868;40.600;2023-08-06T07:59:21;36.04;31.51
75088;HTU21D;63664;44.868;40.600;2023-08-06T08:01:47;36.12;31.29
75088;HTU21D;63664;44.868;40.600;2023-08-06T08:04:13;36.25;31.45
75088;HTU21D;63664;44.868;40.600;2023-08-06T08:06:39;36.34;31.00
75088;HTU21D;63664;44.868;40.600;2023-08-06T08:09:06;36.46;31.06
75088;HTU21D;63664;44.868;40.600;2023-08-06T08:11:32;36.59;30.98
75088;HTU21D;63664;44.868;40.600;2023-08-06T08:13:58;36.71;30.77
75088;HTU21D;63664;44.868;40.600;2023-08-06T08:16:24;36.71;30.49
75088;HTU21D;63664;44.868;40.600;2023-08-06T08:18:51;36.80;30.55
75088;HTU21D;63664;44.868;40.600;2023-08-06T08:21:17;36.87;30.39
75088;HTU21D;63664;44.868;40.600;2023-08-06T08:23:43;36.91;30.35
75088;HTU21D;63664;44.868;40.600;2023-08-06T08:26:10;37.02;30.14
75088;HTU21D;63664;44.868;40.600;2023-08-06T08:28:36;37.15;30.20
75088;HTU21D;63664;44.868;40.600;2023-08-06T08:31:02;37.20;29.90
75088;HTU21D;63664;44.868;40.600;2023-08-06T08:33:28;37.30;29.68
75088;HTU21D;63664;44.868;40.600;2023-08-06T08:35:55;37.35;29.27
75088;HTU21D;63664;44.868;40.600;2023-08-06T08:38:21;37.41;29.48
75088;HTU21D;63664;44.868;40.600;2023-08-06T08:40:51;37.41;29.10
75088;HTU21D;63664;44.868;40.600;2023-08-06T08:43:23;37.35;28.95
75088;HTU21D;63664;44.868;40.600;2023-08-06T08:45:51;37.34;28.72
75088;HTU21D;63664;44.868;40.600;2023-08-06T08:48:18;37.31;28.45
75088;HTU21D;63664;44.868;40.600;2023-08-06T08:50:47;37.36;28.49
75088;HTU21D;63664;44.868;40.600;2023-08-06T08:53:16;37.54;28.61
75088;HTU21D;63664;44.868;40.600;2023-08-06T08:55:46;37.63;28.10
75088;HTU21D;63664;44.868;40.600;2023-08-06T08:58:13;37.66;28.30
75088;HTU21D;63664;44.868;40.600;2023-08-06T09:00:47;37.75;28.14
75088;HTU21D;63664;44.868;40.600;2023-08-06T09:03:17;37.80;28.11
75088;HTU21D;63664;44.868;40.600;2023-08-06T09:05:44;37.88;27.77
75088;HTU21D;63664;44.868;40.600;2023-08-06T09:08:14;37.94;27.65
75088;HTU21D;63664;44.868;40.600;2023-08-06T09:10:43;38.07;27.70
75088;HTU21D;63664;44.868;40.600;2023-08-06T09:13:10;38.17;27.32
75088;HTU21D;63664;44.868;40.600;2023-08-06T09:15:38;38.19;27.52
75088;HTU21D;63664;44.868;40.600;2023-08-06T09:18:12;38.18;27.52
75088;HTU21D;63664;44.868;40.600;2023-08-06T09:20:39;38.22;27.40
75088;HTU21D;63664;44.868;40.600;2023-08-06T09:23:11;38.31;27.18
75088;HTU21D;63664;44.868;40.600;2023-08-06T09:25:40;38.39;27.29
75088;HTU21D;63664;44.868;40.600;2023-08-06T09:28:06;38.50;27.10
75088;HTU21D;63664;44.868;40.600;2023-08-06T09:30:34;38.58;26.92
75088;HTU21D;63664;44.868;40.600;2023-08-06T09:33:01;38.63;26.52
75088;HTU21D;63664;44.868;40.600;2023-08-06T09:35:29;38.62;26.49
75088;HTU21D;63664;44.868;40.600;2023-08-06T09:38:06;38.58;26.09
75088;HTU21D;63664;44.868;40.600;2023-08-06T09:40:37;38.48;26.07
75088;HTU21D;63664;44.868;40.600;2023-08-06T09:43:03;38.49;25.91
75088;HTU21D;63664;44.868;40.600;2023-08-06T09:45:40;38.41;25.55
75088;HTU21D;63664;44.868;40.600;2023-08-06T09:48:08;38.31;25.77
75088;HTU21D;63664;44.868;40.600;2023-08-06T09:50:36;38.35;25.75
75088;HTU21D;63664;44.868;40.600;2023-08-06T09:53:04;38.38;25.57
75088;HTU21D;63664;44.868;40.600;2023-08-06T09:55:32;38.58;26.04
75088;HTU21D;63664;44.868;40.600;2023-08-06T09:57:59;38.71;25.60
75088;HTU21D;63664;44.868;40.600;2023-08-06T10:00:26;38.73;25.51
75088;HTU21D;63664;44.868;40.600;2023-08-06T10:02:53;38.75;25.46
75088;HTU21D;63664;44.868;40.600;2023-08-06T10:05:22;38.77;25.39
75088;HTU21D;63664;44.868;40.600;2023-08-06T10:07:50;38.86;25.29
75088;HTU21D;63664;44.868;40.600;2023-08-06T10:10:17;38.82;24.84
75088;HTU21D;63664;44.868;40.600;2023-08-06T10:12:50;38.76;25.23
75088;HTU21D;63664;44.868;40.600;2023-08-06T10:15:28;38.77;25.25
75088;HTU21D;63664;44.868;40.600;2023-08-06T10:17:57;38.84;24.82
75088;HTU21D;63664;44.868;40.600;2023-08-06T10:20:24;38.81;24.85
75088;HTU21D;63664;44.868;40.600;2023-08-06T10:23:01;38.95;25.09
75088;HTU21D;63664;44.868;40.600;2023-08-06T10:25:35;38.97;24.56
75088;HTU21D;63664;44.868;40.600;2023-08-06T10:28:11;38.94;24.83
75088;HTU21D;63664;44.868;40.600;2023-08-06T10:30:45;38.91;24.90
75088;HTU21D;63664;44.868;40.600;2023-08-06T10:33:12;38.90;24.95
75088;HTU21D;63664;44.868;40.600;2023-08-06T10:35:47;38.93;24.71
75088;HTU21D;63664;44.868;40.600;2023-08-06T10:38:17;38.96;24.85
75088;HTU21D;63664;44.868;40.600;2023-08-06T10:41:01;38.95;24.68
75088;HTU21D;63664;44.868;40.600;2023-08-06T10:43:31;38.88;24.65
75088;HTU21D;63664;44.868;40.600;2023-08-06T10:45:59;38.84;24.72
75088;HTU21D;63664;44.868;40.600;2023-08-06T10:48:43;38.90;25.23
75088;HTU21D;63664;44.868;40.600;2023-08-06T10:51:13;38.98;24.97
75088;HTU21D;63664;44.868;40.600;2023-08-06T10:53:47;39.03;25.05
75088;HTU21D;63664;44.868;40.600;2023-08-06T10:56:19;39.10;25.15
75088;HTU21D;63664;44.868;40.600;2023-08-06T10:58:46;39.11;24.95
75088;HTU21D;63664;44.868;40.600;2023-08-06T11:01:14;39.10;25.11
75088;HTU21D;63664;44.868;40.600;2023-08-06T11:03:46;39.15;25.19
75088;HTU21D;63664;44.868;40.600;2023-08-06T11:06:19;39.19;24.88
75088;HTU21D;63664;44.868;40.600;2023-08-06T11:08:51;39.08;24.78
75088;HTU21D;63664;44.868;40.600;2023-08-06T11:11:19;38.95;24.97
75088;HTU21D;63664;44.868;40.600;2023-08-06T11:13:47;38.94;25.00
75088;HTU21D;63664;44.868;40.600;2023-08-06T11:16:16;38.95;25.02
75088;HTU21D;63664;44.868;40.600;2023-08-06T11:18:43;38.96;25.08
75088;HTU21D;63664;44.868;40.600;2023-08-06T11:21:10;38.91;24.91
75088;HTU21D;63664;44.868;40.600;2023-08-06T11:23:40;38.89;25.07
75088;HTU21D;63664;44.868;40.600;2023-08-06T11:26:07;38.98;25.02
75088;HTU21D;63664;44.868;40.600;2023-08-06T11:28:34;39.09;24.96
75088;HTU21D;63664;44.868;40.600;2023-08-06T11:31:00;39.10;25.15
75088;HTU21D;63664;44.868;40.600;2023-08-06T11:33:28;39.18;24.83
75088;HTU21D;63664;44.868;40.600;2023-08-06T11:35:56;39.12;24.79
75088;HTU21D;63664;44.868;40.600;2023-08-06T11:38:29;39.15;24.67
75088;HTU21D;63664;44.868;40.600;2023-08-06T11:40:56;39.19;24.88
75088;HTU21D;63664;44.868;40.600;2023-08-06T11:43:23;39.26;24.95
75088;HTU21D;63664;44.868;40.600;2023-08-06T11:45:50;39.30;24.86
75088;HTU21D;63664;44.868;40.600;2023-08-06T11:48:20;39.27;24.92
75088;HTU21D;63664;44.868;40.600;2023-08-06T11:50:47;39.26;24.83
75088;HTU21D;63664;44.868;40.600;2023-08-06T11:53:14;39.21;24.80
75088;HTU21D;63664;44.868;40.600;2023-08-06T11:55:41;39.18;24.94
75088;HTU21D;63664;44.868;40.600;2023-08-06T11:58:09;39.14;24.98
75088;HTU21D;63664;44.868;40.600;2023-08-06T12:00:38;39.24;24.98
75088;HTU21D;63664;44.868;40.600;2023-08-06T12:03:05;39.29;25.04
75088;HTU21D;63664;44.868;40.600;2023-08-06T12:05:32;39.33;24.99
75088;HTU21D;63664;44.868;40.600;2023-08-06T12:08:02;39.27;25.03
75088;HTU21D;63664;44.868;40.600;2023-08-06T12:10:31;39.26;25.13
75088;HTU21D;63664;44.868;40.600;2023-08-06T12:12:58;39.28;25.04
75088;HTU21D;63664;44.868;40.600;2023-08-06T12:15:24;39.19;25.01
75088;HTU21D;63664;44.868;40.600;2023-08-06T12:17:51;39.08;25.12
75088;HTU21D;63664;44.868;40.600;2023-08-06T12:20:17;38.96;25.27
75088;HTU21D;63664;44.868;40.600;2023-08-06T12:22:43;38.98;25.34
75088;HTU21D;63664;44.868;40.600;2023-08-06T12:25:12;38.98;25.25
75088;HTU21D;63664;44.868;40.600;2023-08-06T12:27:42;38.97;25.43
75088;HTU21D;63664;44.868;40.600;2023-08-06T12:30:10;38.99;25.50
75088;HTU21D;63664;44.868;40.600;2023-08-06T12:32:37;39.02;25.67
75088;HTU21D;63664;44.868;40.600;2023-08-06T12:35:04;39.04;25.74
75088;HTU21D;63664;44.868;40.600;2023-08-06T12:37:33;39.03;25.70
75088;HTU21D;63664;44.868;40.600;2023-08-06T12:40:00;39.00;25.70
75088;HTU21D;63664;44.868;40.600;2023-08-06T12:42:26;38.93;25.82
75088;HTU21D;63664;44.868;40.600;2023-08-06T12:44:52;38.86;26.09
75088;HTU21D;63664;44.868;40.600;2023-08-06T12:47:19;38.89;26.17
75088;HTU21D;63664;44.868;40.600;2023-08-06T12:49:46;38.88;26.26
75088;HTU21D;63664;44.868;40.600;2023-08-06T12:52:12;38.86;26.33
75088;HTU21D;63664;44.868;40.600;2023-08-06T12:54:41;38.73;26.39
75088;HTU21D;63664;44.868;40.600;2023-08-06T12:57:07;38.69;26.49
75088;HTU21D;63664;44.868;40.600;2023-08-06T12:59:33;38.66;26.37
75088;HTU21D;63664;44.868;40.600;2023-08-06T13:02:03;38.56;26.36
75088;HTU21D;63664;44.868;40.600;2023-08-06T13:04:29;38.58;26.64
75088;HTU21D;63664;44.868;40.600;2023-08-06T13:06:56;38.58;26.52
75088;HTU21D;63664;44.868;40.600;2023-08-06T13:09:22;38.49;26.52
75088;HTU21D;63664;44.868;40.600;2023-08-06T13:11:49;38.47;26.52
75088;HTU21D;63664;44.868;40.600;2023-08-06T13:14:16;38.45;26.59
75088;HTU21D;63664;44.868;40.600;2023-08-06T13:16:43;38.45;26.78
75088;HTU21D;63664;44.868;40.600;2023-08-06T13:19:11;38.37;26.75
75088;HTU21D;63664;44.868;40.600;2023-08-06T13:24:12;38.30;27.02
75088;HTU21D;63664;44.868;40.600;2023-08-06T13:26:39;38.22;27.01
75088;HTU21D;63664;44.868;40.600;2023-08-06T13:29:05;38.18;27.14
75088;HTU21D;63664;44.868;40.600;2023-08-06T13:31:33;38.19;27.35
75088;HTU21D;63664;44.868;40.600;2023-08-06T13:33:59;38.24;27.52
75088;HTU21D;63664;44.868;40.600;2023-08-06T13:36:27;38.25;27.68
75088;HTU21D;63664;44.868;40.600;2023-08-06T13:38:53;38.24;27.57
75088;HTU21D;63664;44.868;40.600;2023-08-06T13:41:20;38.19;27.62
75088;HTU21D;63664;44.868;40.600;2023-08-06T13:43:46;38.11;27.67
75088;HTU21D;63664;44.868;40.600;2023-08-06T13:46:13;38.05;27.59
75088;HTU21D;63664;44.868;40.600;2023-08-06T13:48:45;38.00;27.60
75088;HTU21D;63664;44.868;40.600;2023-08-06T13:51:12;37.96;27.81
75088;HTU21D;63664;44.868;40.600;2023-08-06T13:53:41;37.94;28.13
75088;HTU21D;63664;44.868;40.600;2023-08-06T13:56:09;37.90;28.05
75088;HTU21D;63664;44.868;40.600;2023-08-06T13:58:38;37.87;28.03
75088;HTU21D;63664;44.868;40.600;2023-08-06T14:01:04;37.82;27.91
75088;HTU21D;63664;44.868;40.600;2023-08-06T14:03:31;37.80;27.93
75088;HTU21D;63664;44.868;40.600;2023-08-06T14:05:57;37.76;27.98
75088;HTU21D;63664;44.868;40.600;2023-08-06T14:08:24;37.73;28.22
75088;HTU21D;63664;44.868;40.600;2023-08-06T14:10:51;37.73;28.24
75088;HTU21D;63664;44.868;40.600;2023-08-06T14:13:18;37.66;28.26
75088;HTU21D;63664;44.868;40.600;2023-08-06T14:15:44;37.59;28.39
75088;HTU21D;63664;44.868;40.600;2023-08-06T14:18:14;37.52;28.39
75088;HTU21D;63664;44.868;40.600;2023-08-06T14:20:41;37.44;28.34
75088;HTU21D;63664;44.868;40.600;2023-08-06T14:23:08;37.35;28.38
75088;HTU21D;63664;44.868;40.600;2023-08-06T14:25:34;37.31;28.42
75088;HTU21D;63664;44.868;40.600;2023-08-06T14:28:01;37.23;28.31
75088;HTU21D;63664;44.868;40.600;2023-08-06T14:30:27;37.17;28.49
75088;HTU21D;63664;44.868;40.600;2023-08-06T14:32:53;37.12;28.57
75088;HTU21D;63664;44.868;40.600;2023-08-06T14:35:20;37.04;28.74
75088;HTU21D;63664;44.868;40.600;2023-08-06T14:37:46;36.99;28.85
75088;HTU21D;63664;44.868;40.600;2023-08-06T14:40:12;36.93;29.00
75088;HTU21D;63664;44.868;40.600;2023-08-06T14:42:39;36.85;29.16
75088;HTU21D;63664;44.868;40.600;2023-08-06T14:45:06;36.74;29.36
75088;HTU21D;63664;44.868;40.600;2023-08-06T14:47:32;36.67;29.55
75088;HTU21D;63664;44.868;40.600;2023-08-06T14:49:58;36.61;29.71
75088;HTU21D;63664;44.868;40.600;2023-08-06T14:52:25;36.54;29.83
75088;HTU21D;63664;44.868;40.600;2023-08-06T14:54:51;36.47;30.09
75088;HTU21D;63664;44.868;40.600;2023-08-06T14:57:24;36.40;30.22
75088;HTU21D;63664;44.868;40.600;2023-08-06T14:59:57;36.28;30.40
75088;HTU21D;63664;44.868;40.600;2023-08-06T15:02:23;36.19;30.61
75088;HTU21D;63664;44.868;40.600;2023-08-06T15:04:49;36.12;30.80
75088;HTU21D;63664;44.868;40.600;2023-08-06T15:07:16;36.03;30.93
75088;HTU21D;63664;44.868;40.600;2023-08-06T15:09:42;35.97;31.19
75088;HTU21D;63664;44.868;40.600;2023-08-06T15:12:09;35.87;31.37
75088;HTU21D;63664;44.868;40.600;2023-08-06T15:14:35;35.80;31.53